Climatologie pour Saint-Brevin les Pins
Jour • Résumé pour avril 12, 2017 Système :  Métrique    Anglais   Mixte
« - 1 jour
+ 1 jour »
Jour Semaine Mois Année Personnalisé
  Maximum : Minimum : Moyenne :
Température sous abri : 18.1 °C 4.2 °C 11.2 °C
Point de rosée : 11.2 °C 3.6 °C 7.7 °C
Humidité : 97 % 53 % 81 %
Vitesse du vent : 17.7 km/h 0.0 km/h 3.6 km/h
Rafale : 25.7 km/h - -
Direction :- - SW
Pression : 1026.0 hPa 1020.5 hPa -
Précipitations : 0.0 mm    
Historical Graphs
 
 
Tableau de données pour avril 12, 2017
Heure Tempé Pt rosée Pression Vent Vitesse Rafale Humidité Taux pluie (/hr) Soleil
00:00 8.6 °C 7.1 °C 1026.0 hPa NW 4.8 km/h 9.7 km/h 90 % 0.0 mm 0 W/m2
00:05 8.7 °C 7.3 °C 1026.0 hPa Calm   9.7 km/h 91 % 0.0 mm 0 W/m2
00:10 8.7 °C 7.3 °C 1026.0 hPa Calm   4.8 km/h 91 % 0.0 mm 0 W/m2
00:15 8.7 °C 7.3 °C 1026.0 hPa Calm   4.8 km/h 91 % 0.0 mm 0 W/m2
00:20 8.7 °C 7.4 °C 1026.0 hPa Calm   4.8 km/h 92 % 0.0 mm 0 W/m2
00:25 8.6 °C 7.4 °C 1026.0 hPa NNE 1.6 km/h 6.4 km/h 92 % 0.0 mm 0 W/m2
00:35 8.7 °C 7.5 °C 1026.0 hPa North 4.8 km/h 6.4 km/h 92 % 0.0 mm 0 W/m2
00:40 8.8 °C 7.4 °C 1026.0 hPa Calm   9.7 km/h 91 % 0.0 mm 0 W/m2
00:45 8.8 °C 7.4 °C 1026.0 hPa NE 4.8 km/h 11.3 km/h 91 % 0.0 mm 0 W/m2
00:50 9.0 °C 7.4 °C 1026.0 hPa NE 4.8 km/h 11.3 km/h 90 % 0.0 mm 0 W/m2
00:55 9.0 °C 7.3 °C 1026.0 hPa Calm   11.3 km/h 89 % 0.0 mm 0 W/m2
01:00 9.1 °C 7.3 °C 1026.0 hPa NE 8.0 km/h 8.0 km/h 89 % 0.0 mm 0 W/m2
01:05 9.1 °C 7.2 °C 1026.0 hPa Calm   8.0 km/h 88 % 0.0 mm 0 W/m2
01:10 8.9 °C 7.1 °C 1026.0 hPa NE 3.2 km/h 8.0 km/h 88 % 0.0 mm 0 W/m2
01:15 8.8 °C 7.0 °C 1026.0 hPa Calm   8.0 km/h 88 % 0.0 mm 0 W/m2
01:20 8.6 °C 6.7 °C 1026.0 hPa Calm   6.4 km/h 88 % 0.0 mm 0 W/m2
01:25 8.5 °C 6.8 °C 1026.0 hPa NE 3.2 km/h 6.4 km/h 89 % 0.0 mm 0 W/m2
01:30 8.6 °C 6.9 °C 1026.0 hPa Calm   6.4 km/h 89 % 0.0 mm 0 W/m2
01:35 8.5 °C 6.8 °C 1026.0 hPa Calm   6.4 km/h 89 % 0.0 mm 0 W/m2
01:40 8.3 °C 6.6 °C 1026.0 hPa Calm   3.2 km/h 89 % 0.0 mm 0 W/m2
01:45 8.2 °C 6.6 °C 1026.0 hPa NE 1.6 km/h 4.8 km/h 90 % 0.0 mm 0 W/m2
01:50 8.1 °C 6.5 °C 1025.6 hPa Calm   4.8 km/h 90 % 0.0 mm 0 W/m2
01:55 7.8 °C 6.3 °C 1025.6 hPa Calm   3.2 km/h 90 % 0.0 mm 0 W/m2
02:00 7.7 °C 6.3 °C 1025.6 hPa Calm   3.2 km/h 91 % 0.0 mm 0 W/m2
02:10 7.6 °C 6.2 °C 1025.6 hPa Calm   4.8 km/h 91 % 0.0 mm 0 W/m2
02:15 7.5 °C 6.1 °C 1025.6 hPa Calm   4.8 km/h 91 % 0.0 mm 0 W/m2
02:20 7.2 °C 5.9 °C 1025.6 hPa Calm   1.6 km/h 91 % 0.0 mm 0 W/m2
02:25 7.1 °C 5.9 °C 1025.6 hPa Calm   3.2 km/h 92 % 0.0 mm 0 W/m2
02:30 6.9 °C 5.7 °C 1025.6 hPa Calm   4.8 km/h 92 % 0.0 mm 0 W/m2
02:35 6.8 °C 5.6 °C 1025.6 hPa Calm   4.8 km/h 92 % 0.0 mm 0 W/m2
02:40 6.8 °C 5.7 °C 1025.6 hPa NE 3.2 km/h 4.8 km/h 93 % 0.0 mm 0 W/m2
02:45 6.8 °C 5.7 °C 1025.3 hPa Calm   4.8 km/h 93 % 0.0 mm 0 W/m2
02:55 6.4 °C 5.4 °C 1025.3 hPa Calm   3.2 km/h 93 % 0.0 mm 0 W/m2
03:00 6.5 °C 5.4 °C 1025.3 hPa NE 1.6 km/h 3.2 km/h 93 % 0.0 mm 0 W/m2
03:05 6.4 °C 5.3 °C 1025.3 hPa Calm   3.2 km/h 93 % 0.0 mm 0 W/m2
03:10 6.3 °C 5.4 °C 1025.3 hPa Calm   1.6 km/h 94 % 0.0 mm 0 W/m2
03:15 6.3 °C 5.4 °C 1025.3 hPa Calm   1.6 km/h 94 % 0.0 mm 0 W/m2
03:20 6.3 °C 5.4 °C 1024.9 hPa Calm   1.6 km/h 94 % 0.0 mm 0 W/m2
03:25 6.2 °C 5.3 °C 1024.9 hPa Calm   1.6 km/h 94 % 0.0 mm 0 W/m2
03:30 6.3 °C 5.4 °C 1024.9 hPa Calm   1.6 km/h 94 % 0.0 mm 0 W/m2
03:35 6.1 °C 5.2 °C 1024.9 hPa Calm     94 % 0.0 mm 0 W/m2
03:40 6.2 °C 5.3 °C 1024.9 hPa Calm     94 % 0.0 mm 0 W/m2
03:45 6.0 °C 5.1 °C 1024.9 hPa Calm   1.6 km/h 94 % 0.0 mm 0 W/m2
03:50 5.9 °C 5.0 °C 1024.6 hPa Calm   1.6 km/h 94 % 0.0 mm 0 W/m2
03:55 5.9 °C 5.0 °C 1024.6 hPa Calm   1.6 km/h 94 % 0.0 mm 0 W/m2
04:00 5.8 °C 5.1 °C 1024.6 hPa Calm     95 % 0.0 mm 0 W/m2
04:05 5.8 °C 4.9 °C 1024.6 hPa Calm     94 % 0.0 mm 0 W/m2
04:10 5.8 °C 4.9 °C 1024.6 hPa Calm     94 % 0.0 mm 0 W/m2
04:15 5.8 °C 5.0 °C 1024.6 hPa Calm     95 % 0.0 mm 0 W/m2
04:25 5.6 °C 4.8 °C 1024.6 hPa Calm     95 % 0.0 mm 0 W/m2
04:30 5.6 °C 4.9 °C 1024.6 hPa Calm     95 % 0.0 mm 0 W/m2
04:35 5.5 °C 4.8 °C 1024.3 hPa Calm     95 % 0.0 mm 0 W/m2
04:40 5.4 °C 4.7 °C 1024.3 hPa Calm   1.6 km/h 95 % 0.0 mm 0 W/m2
04:45 5.4 °C 4.7 °C 1024.3 hPa Calm   1.6 km/h 95 % 0.0 mm 0 W/m2
04:50 5.4 °C 4.7 °C 1024.3 hPa Calm     95 % 0.0 mm 0 W/m2
04:55 5.3 °C 4.6 °C 1024.3 hPa Calm     95 % 0.0 mm 0 W/m2
05:00 5.3 °C 4.5 °C 1024.3 hPa Calm     95 % 0.0 mm 0 W/m2
05:10 5.2 °C 4.4 °C 1024.3 hPa Calm     95 % 0.0 mm 0 W/m2
05:20 5.2 °C 4.5 °C 1024.3 hPa Calm     95 % 0.0 mm 0 W/m2
05:25 5.1 °C 4.3 °C 1024.3 hPa Calm     95 % 0.0 mm 0 W/m2
05:30 5.1 °C 4.3 °C 1024.3 hPa Calm     95 % 0.0 mm 0 W/m2
05:35 5.0 °C 4.3 °C 1024.3 hPa Calm     95 % 0.0 mm 0 W/m2
05:40 5.0 °C 4.3 °C 1024.3 hPa Calm     95 % 0.0 mm 0 W/m2
05:45 4.9 °C 4.4 °C 1023.9 hPa Calm   1.6 km/h 96 % 0.0 mm 0 W/m2
05:55 4.9 °C 4.4 °C 1024.3 hPa Calm     96 % 0.0 mm 0 W/m2
06:00 5.1 °C 4.5 °C 1024.3 hPa Calm     96 % 0.0 mm 0 W/m2
06:05 5.0 °C 4.3 °C 1024.3 hPa Calm     95 % 0.0 mm 0 W/m2
06:10 4.8 °C 4.2 °C 1023.9 hPa Calm   1.6 km/h 96 % 0.0 mm 0 W/m2
06:15 4.7 °C 4.1 °C 1023.9 hPa Calm   1.6 km/h 96 % 0.0 mm 0 W/m2
06:20 4.8 °C 4.2 °C 1023.9 hPa Calm   1.6 km/h 96 % 0.0 mm 0 W/m2
06:25 4.7 °C 4.1 °C 1023.9 hPa NE 1.6 km/h 1.6 km/h 96 % 0.0 mm 0 W/m2
06:30 4.7 °C 4.1 °C 1023.9 hPa Calm   1.6 km/h 96 % 0.0 mm 0 W/m2
06:35 4.7 °C 4.1 °C 1023.9 hPa Calm   1.6 km/h 96 % 0.0 mm 0 W/m2
06:40 4.7 °C 4.1 °C 1023.9 hPa Calm     96 % 0.0 mm 0 W/m2
06:45 4.7 °C 4.1 °C 1023.9 hPa Calm     96 % 0.0 mm 0 W/m2
06:50 4.7 °C 4.1 °C 1023.9 hPa Calm     96 % 0.0 mm 0 W/m2
06:55 4.6 °C 4.0 °C 1023.9 hPa Calm     96 % 0.0 mm 0 W/m2
07:00 4.5 °C 3.9 °C 1023.9 hPa Calm     96 % 0.0 mm 0 W/m2
07:05 4.5 °C 3.9 °C 1023.9 hPa Calm   1.6 km/h 96 % 0.0 mm 0 W/m2
07:10 4.4 °C 3.9 °C 1023.9 hPa Calm   1.6 km/h 96 % 0.0 mm 0 W/m2
07:15 4.5 °C 3.9 °C 1023.9 hPa Calm   1.6 km/h 96 % 0.0 mm 0 W/m2
07:25 4.6 °C 4.0 °C 1023.9 hPa Calm   1.6 km/h 96 % 0.0 mm 0 W/m2
07:30 4.3 °C 3.8 °C 1024.3 hPa Calm     96 % 0.0 mm 5 W/m2
07:35 4.2 °C 3.6 °C 1024.3 hPa Calm     96 % 0.0 mm 7 W/m2
07:40 4.3 °C 3.7 °C 1024.3 hPa Calm     96 % 0.0 mm 11 W/m2
07:45 4.2 °C 3.6 °C 1024.3 hPa Calm     96 % 0.0 mm 16 W/m2
07:50 4.3 °C 3.9 °C 1024.3 hPa Calm   1.6 km/h 97 % 0.0 mm 19 W/m2
07:55 4.4 °C 4.0 °C 1024.3 hPa Calm   1.6 km/h 97 % 0.0 mm 21 W/m2
08:00 4.6 °C 4.1 °C 1024.3 hPa Calm   1.6 km/h 97 % 0.0 mm 26 W/m2
08:05 4.6 °C 4.0 °C 1024.3 hPa Calm     96 % 0.0 mm 30 W/m2
08:10 4.7 °C 4.1 °C 1024.3 hPa Calm     96 % 0.0 mm 33 W/m2
08:15 5.0 °C 4.6 °C 1024.3 hPa Calm     97 % 0.0 mm 37 W/m2
08:20 5.1 °C 4.7 °C 1024.3 hPa NE 1.6 km/h 3.2 km/h 97 % 0.0 mm 40 W/m2
08:25 5.3 °C 4.8 °C 1024.3 hPa Calm   3.2 km/h 97 % 0.0 mm 86 W/m2
08:30 5.7 °C 5.2 °C 1024.3 hPa Calm   1.6 km/h 97 % 0.0 mm 107 W/m2
08:35 6.0 °C 5.6 °C 1024.3 hPa Calm   1.6 km/h 97 % 0.0 mm 125 W/m2
08:40 6.4 °C 6.0 °C 1024.3 hPa NE 3.2 km/h 4.8 km/h 97 % 0.0 mm 142 W/m2
08:45 6.9 °C 6.4 °C 1024.3 hPa NE 3.2 km/h 4.8 km/h 97 % 0.0 mm 158 W/m2
08:50 7.2 °C 6.8 °C 1024.3 hPa NE 3.2 km/h 4.8 km/h 97 % 0.0 mm 171 W/m2
09:00 7.6 °C 7.0 °C 1024.3 hPa ENE 1.6 km/h 8.0 km/h 96 % 0.0 mm 204 W/m2
09:10 8.2 °C 7.6 °C 1024.3 hPa Calm   8.0 km/h 96 % 0.0 mm 232 W/m2
09:15 8.4 °C 7.7 °C 1023.9 hPa NNE 1.6 km/h 8.0 km/h 95 % 0.0 mm 248 W/m2
09:20 8.7 °C 7.8 °C 1023.9 hPa Calm   8.0 km/h 94 % 0.0 mm 265 W/m2
09:25 8.9 °C 7.8 °C 1023.9 hPa NE 3.2 km/h 8.0 km/h 93 % 0.0 mm 281 W/m2
09:30 9.2 °C 7.8 °C 1023.9 hPa Calm   6.4 km/h 91 % 0.0 mm 294 W/m2
09:40 9.8 °C 7.9 °C 1023.9 hPa ENE 3.2 km/h 6.4 km/h 88 % 0.0 mm 322 W/m2
09:45 10.1 °C 8.0 °C 1023.9 hPa Calm   4.8 km/h 87 % 0.0 mm 338 W/m2
09:50 10.3 °C 7.9 °C 1023.9 hPa East 3.2 km/h 4.8 km/h 85 % 0.0 mm 352 W/m2
09:55 10.6 °C 8.1 °C 1023.9 hPa East 3.2 km/h 4.8 km/h 85 % 0.0 mm 369 W/m2
10:00 10.7 °C 8.1 °C 1023.9 hPa East 3.2 km/h 8.0 km/h 84 % 0.0 mm 383 W/m2
10:05 11.0 °C 8.2 °C 1023.9 hPa ENE 4.8 km/h 8.0 km/h 83 % 0.0 mm 399 W/m2
10:10 11.2 °C 8.4 °C 1023.9 hPa Calm   6.4 km/h 83 % 0.0 mm 413 W/m2
10:15 11.5 °C 8.9 °C 1023.9 hPa Calm   6.4 km/h 84 % 0.0 mm 429 W/m2
10:25 12.1 °C 9.1 °C 1023.6 hPa ENE 1.6 km/h 4.8 km/h 82 % 0.0 mm 459 W/m2
10:30 12.4 °C 9.2 °C 1023.6 hPa ENE 1.6 km/h 4.8 km/h 81 % 0.0 mm 473 W/m2
10:35 12.6 °C 9.4 °C 1023.6 hPa Calm   3.2 km/h 81 % 0.0 mm 485 W/m2
10:40 13.0 °C 9.8 °C 1023.6 hPa Calm   3.2 km/h 81 % 0.0 mm 503 W/m2
10:45 13.3 °C 9.8 °C 1023.6 hPa Calm   3.2 km/h 79 % 0.0 mm 513 W/m2
10:55 13.7 °C 10.1 °C 1023.6 hPa ENE 4.8 km/h 6.4 km/h 79 % 0.0 mm 540 W/m2
11:00 13.7 °C 9.3 °C 1023.6 hPa ENE 1.6 km/h 6.4 km/h 75 % 0.0 mm 550 W/m2
11:10 14.3 °C 9.5 °C 1023.6 hPa Calm   6.4 km/h 73 % 0.0 mm 577 W/m2
11:15 14.5 °C 9.5 °C 1023.6 hPa NE 1.6 km/h 6.4 km/h 72 % 0.0 mm 589 W/m2
11:20 14.6 °C 9.8 °C 1023.6 hPa Calm   6.4 km/h 73 % 0.0 mm 598 W/m2
11:25 14.9 °C 10.5 °C 1023.6 hPa NNW 3.2 km/h 9.7 km/h 75 % 0.0 mm 610 W/m2
11:30 15.2 °C 11.2 °C 1023.6 hPa NW 3.2 km/h 9.7 km/h 77 % 0.0 mm 619 W/m2
11:35 15.4 °C 10.6 °C 1023.6 hPa NNE 4.8 km/h 8.0 km/h 73 % 0.0 mm 633 W/m2
11:40 15.5 °C 10.5 °C 1023.6 hPa ENE 1.6 km/h 8.0 km/h 72 % 0.0 mm 645 W/m2
11:45 15.6 °C 9.9 °C 1023.6 hPa North 4.8 km/h 6.4 km/h 69 % 0.0 mm 656 W/m2
11:55 15.9 °C 9.8 °C 1023.6 hPa North 1.6 km/h 9.7 km/h 67 % 0.0 mm 671 W/m2
12:00 16.0 °C 10.7 °C 1023.6 hPa NNE 1.6 km/h 8.0 km/h 71 % 0.0 mm 682 W/m2
12:05 16.3 °C 9.7 °C 1023.6 hPa Calm   8.0 km/h 65 % 0.0 mm 691 W/m2
12:10 16.2 °C 9.1 °C 1023.6 hPa North 3.2 km/h 8.0 km/h 63 % 0.0 mm 696 W/m2
12:15 16.4 °C 8.9 °C 1023.6 hPa West 3.2 km/h 6.4 km/h 61 % 0.0 mm 707 W/m2
12:20 16.4 °C 9.4 °C 1023.6 hPa Calm   6.4 km/h 63 % 0.0 mm 714 W/m2
12:25 16.8 °C 9.7 °C 1023.6 hPa NW 8.0 km/h 12.9 km/h 63 % 0.0 mm 715 W/m2
12:30 17.2 °C 9.6 °C 1023.6 hPa West 4.8 km/h 12.9 km/h 61 % 0.0 mm 717 W/m2
12:35 17.2 °C 10.1 °C 1023.6 hPa NNW 4.8 km/h 9.7 km/h 63 % 0.0 mm 728 W/m2
12:45 17.5 °C 10.4 °C 1023.2 hPa WNW 4.8 km/h 9.7 km/h 63 % 0.0 mm 740 W/m2
12:50 17.2 °C 9.4 °C 1023.2 hPa WNW 6.4 km/h 11.3 km/h 60 % 0.0 mm 747 W/m2
12:55 17.1 °C 9.8 °C 1023.2 hPa NW 8.0 km/h 11.3 km/h 62 % 0.0 mm 754 W/m2
13:00 17.4 °C 10.3 °C 1023.2 hPa NW 6.4 km/h 11.3 km/h 63 % 0.0 mm 759 W/m2
13:05 17.3 °C 8.7 °C 1023.2 hPa Calm   9.7 km/h 57 % 0.0 mm 766 W/m2
13:10 17.6 °C 8.7 °C 1023.2 hPa NNW 6.4 km/h 9.7 km/h 56 % 0.0 mm 775 W/m2
13:15 17.6 °C 7.9 °C 1023.2 hPa West 3.2 km/h 11.3 km/h 53 % 0.0 mm 777 W/m2
13:20 17.7 °C 8.8 °C 1023.2 hPa NW 4.8 km/h 11.3 km/h 56 % 0.0 mm 782 W/m2
13:25 18.1 °C 9.4 °C 1023.2 hPa WNW 3.2 km/h 11.3 km/h 57 % 0.0 mm 789 W/m2
13:30 18.1 °C 9.7 °C 1022.9 hPa WSW 8.0 km/h 14.5 km/h 58 % 0.0 mm 788 W/m2
13:35 18.1 °C 8.6 °C 1022.9 hPa WSW 4.8 km/h 14.5 km/h 54 % 0.0 mm 791 W/m2
13:40 17.6 °C 9.4 °C 1022.9 hPa WSW 8.0 km/h 12.9 km/h 59 % 0.0 mm 791 W/m2
13:45 16.9 °C 9.6 °C 1022.9 hPa West 9.7 km/h 12.9 km/h 62 % 0.0 mm 793 W/m2
13:50 16.8 °C 9.7 °C 1022.9 hPa West 8.0 km/h 14.5 km/h 63 % 0.0 mm 789 W/m2
13:55 16.7 °C 9.6 °C 1022.9 hPa West 4.8 km/h 16.1 km/h 63 % 0.0 mm 793 W/m2
14:00 16.4 °C 9.3 °C 1022.9 hPa West 6.4 km/h 17.7 km/h 63 % 0.0 mm 791 W/m2
14:05 16.6 °C 9.7 °C 1022.9 hPa WNW 8.0 km/h 17.7 km/h 64 % 0.0 mm 795 W/m2
14:10 16.6 °C 10.0 °C 1022.9 hPa WSW 8.0 km/h 16.1 km/h 65 % 0.0 mm 789 W/m2
14:15 17.1 °C 10.0 °C 1022.9 hPa WSW 8.0 km/h 17.7 km/h 63 % 0.0 mm 788 W/m2
14:20 16.2 °C 9.4 °C 1022.6 hPa WSW 11.3 km/h 17.7 km/h 64 % 0.0 mm 788 W/m2
14:25 16.2 °C 9.6 °C 1022.6 hPa SW 4.8 km/h 17.7 km/h 65 % 0.0 mm 784 W/m2
14:30 17.2 °C 10.6 °C 1022.6 hPa NW 6.4 km/h 14.5 km/h 65 % 0.0 mm 782 W/m2
14:35 16.7 °C 9.8 °C 1022.6 hPa NW 3.2 km/h 17.7 km/h 64 % 0.0 mm 780 W/m2
14:40 16.3 °C 9.5 °C 1022.6 hPa WNW 8.0 km/h 17.7 km/h 64 % 0.0 mm 780 W/m2
14:45 16.5 °C 9.4 °C 1022.6 hPa WNW 11.3 km/h 17.7 km/h 63 % 0.0 mm 777 W/m2
14:55 16.1 °C 9.5 °C 1022.6 hPa West 4.8 km/h 22.5 km/h 65 % 0.0 mm 763 W/m2
15:00 16.2 °C 8.9 °C 1022.6 hPa WNW 11.3 km/h 19.3 km/h 62 % 0.0 mm 749 W/m2
15:05 16.4 °C 10.1 °C 1022.6 hPa West 4.8 km/h 19.3 km/h 66 % 0.0 mm 754 W/m2
15:10 17.3 °C 11.1 °C 1022.6 hPa NW 3.2 km/h 17.7 km/h 67 % 0.0 mm 747 W/m2
15:15 17.2 °C 10.3 °C 1022.6 hPa WNW 6.4 km/h 19.3 km/h 64 % 0.0 mm 744 W/m2
15:20 17.1 °C 9.8 °C 1022.6 hPa West 6.4 km/h 19.3 km/h 62 % 0.0 mm 735 W/m2
15:25 17.1 °C 10.0 °C 1022.2 hPa West 9.7 km/h 17.7 km/h 63 % 0.0 mm 729 W/m2
15:30 16.8 °C 9.9 °C 1022.6 hPa WSW 11.3 km/h 16.1 km/h 64 % 0.0 mm 721 W/m2
15:35 16.4 °C 9.8 °C 1022.2 hPa WSW 6.4 km/h 17.7 km/h 65 % 0.0 mm 722 W/m2
15:40 16.7 °C 9.9 °C 1022.2 hPa West 14.5 km/h 20.9 km/h 64 % 0.0 mm 715 W/m2
15:45 16.2 °C 10.0 °C 1022.2 hPa SW 8.0 km/h 20.9 km/h 67 % 0.0 mm 710 W/m2
15:50 16.1 °C 10.2 °C 1022.2 hPa WNW 9.7 km/h 19.3 km/h 68 % 0.0 mm 700 W/m2
15:55 17.1 °C 10.9 °C 1022.2 hPa WNW 14.5 km/h 17.7 km/h 67 % 0.0 mm 693 W/m2
16:00 16.9 °C 10.3 °C 1021.9 hPa West 12.9 km/h 17.7 km/h 65 % 0.0 mm 691 W/m2
16:05 16.4 °C 10.0 °C 1021.9 hPa WSW 6.4 km/h 17.7 km/h 66 % 0.0 mm 682 W/m2
16:10 16.5 °C 10.8 °C 1021.9 hPa West 6.4 km/h 17.7 km/h 69 % 0.0 mm 675 W/m2
16:15 16.9 °C 10.3 °C 1021.9 hPa WNW 12.9 km/h 19.3 km/h 65 % 0.0 mm 664 W/m2
16:25 15.9 °C 9.8 °C 1021.9 hPa West 11.3 km/h 25.7 km/h 67 % 0.0 mm 645 W/m2
16:30 16.3 °C 10.4 °C 1021.9 hPa WSW 4.8 km/h 20.9 km/h 68 % 0.0 mm 636 W/m2
16:35 16.4 °C 9.1 °C 1021.6 hPa WNW 8.0 km/h 20.9 km/h 62 % 0.0 mm 628 W/m2
16:40 16.2 °C 8.6 °C 1021.6 hPa WNW 11.3 km/h 20.9 km/h 61 % 0.0 mm 617 W/m2
16:45 16.2 °C 9.1 °C 1021.6 hPa West 14.5 km/h 25.7 km/h 63 % 0.0 mm 608 W/m2
16:50 15.9 °C 8.4 °C 1021.6 hPa WSW 6.4 km/h 25.7 km/h 61 % 0.0 mm 591 W/m2
16:55 16.2 °C 8.6 °C 1021.6 hPa WNW 9.7 km/h 22.5 km/h 61 % 0.0 mm 584 W/m2
17:00 16.0 °C 9.0 °C 1021.6 hPa WNW 9.7 km/h 19.3 km/h 63 % 0.0 mm 571 W/m2
17:10 15.9 °C 9.1 °C 1021.6 hPa WNW 9.7 km/h 20.9 km/h 64 % 0.0 mm 548 W/m2
17:15 15.8 °C 9.5 °C 1021.2 hPa West 3.2 km/h 20.9 km/h 66 % 0.0 mm 534 W/m2
17:20 16.2 °C 9.8 °C 1021.2 hPa West 3.2 km/h 17.7 km/h 66 % 0.0 mm 524 W/m2
17:25 16.1 °C 9.2 °C 1021.2 hPa WSW 8.0 km/h 16.1 km/h 64 % 0.0 mm 362 W/m2
17:30 15.7 °C 9.2 °C 1021.2 hPa WSW 11.3 km/h 19.3 km/h 65 % 0.0 mm 492 W/m2
17:35 15.6 °C 9.1 °C 1020.9 hPa WNW 12.9 km/h 19.3 km/h 65 % 0.0 mm 480 W/m2
17:40 15.7 °C 9.4 °C 1021.2 hPa WSW 6.4 km/h 19.3 km/h 66 % 0.0 mm 468 W/m2
17:45 15.8 °C 10.2 °C 1021.2 hPa West 4.8 km/h 19.3 km/h 69 % 0.0 mm 290 W/m2
17:55 15.7 °C 10.4 °C 1021.2 hPa WNW 11.3 km/h 20.9 km/h 71 % 0.0 mm 309 W/m2
18:00 15.7 °C 10.6 °C 1020.9 hPa WSW 9.7 km/h 17.7 km/h 72 % 0.0 mm 229 W/m2
18:05 15.8 °C 10.8 °C 1020.9 hPa West 12.9 km/h 16.1 km/h 72 % 0.0 mm 390 W/m2
18:10 15.8 °C 10.6 °C 1020.9 hPa WSW 8.0 km/h 17.7 km/h 71 % 0.0 mm 380 W/m2
18:15 15.9 °C 10.7 °C 1020.9 hPa WNW 9.7 km/h 17.7 km/h 71 % 0.0 mm 367 W/m2
18:20 15.6 °C 10.6 °C 1020.9 hPa West 9.7 km/h 17.7 km/h 72 % 0.0 mm 350 W/m2
18:25 15.6 °C 10.9 °C 1020.9 hPa NW 4.8 km/h 17.7 km/h 74 % 0.0 mm 332 W/m2
18:30 15.4 °C 10.8 °C 1020.9 hPa SW 9.7 km/h 19.3 km/h 74 % 0.0 mm 322 W/m2
18:40 15.2 °C 11.0 °C 1020.9 hPa West 4.8 km/h 17.7 km/h 76 % 0.0 mm 287 W/m2
18:45 15.2 °C 11.0 °C 1020.9 hPa West 17.7 km/h 17.7 km/h 76 % 0.0 mm 274 W/m2
18:50 15.1 °C 10.7 °C 1020.9 hPa West 8.0 km/h 17.7 km/h 75 % 0.0 mm 236 W/m2
18:55 14.9 °C 10.7 °C 1020.5 hPa WNW 12.9 km/h 17.7 km/h 76 % 0.0 mm 246 W/m2
19:00 14.8 °C 10.4 °C 1020.5 hPa WNW 12.9 km/h 16.1 km/h 75 % 0.0 mm 230 W/m2
19:05 14.8 °C 10.4 °C 1020.5 hPa West 4.8 km/h 16.1 km/h 75 % 0.0 mm 218 W/m2
19:10 14.8 °C 10.6 °C 1020.5 hPa NW 8.0 km/h 14.5 km/h 76 % 0.0 mm 202 W/m2
19:15 14.9 °C 10.3 °C 1020.5 hPa NW 11.3 km/h 12.9 km/h 74 % 0.0 mm 104 W/m2
19:25 15.0 °C 10.2 °C 1020.5 hPa WNW 6.4 km/h 11.3 km/h 73 % 0.0 mm 63 W/m2
19:30 15.0 °C 10.2 °C 1020.5 hPa Calm   11.3 km/h 73 % 0.0 mm 58 W/m2
19:35 14.9 °C 9.5 °C 1020.5 hPa WNW 9.7 km/h 17.7 km/h 70 % 0.0 mm 49 W/m2
19:40 14.8 °C 9.1 °C 1020.5 hPa WNW 6.4 km/h 17.7 km/h 69 % 0.0 mm 46 W/m2
19:45 14.7 °C 8.8 °C 1020.5 hPa WNW 4.8 km/h 16.1 km/h 68 % 0.0 mm 42 W/m2
19:50 14.6 °C 8.7 °C 1020.5 hPa WNW 6.4 km/h 16.1 km/h 68 % 0.0 mm 44 W/m2
19:55 14.4 °C 8.4 °C 1020.5 hPa WNW 8.0 km/h 16.1 km/h 67 % 0.0 mm 46 W/m2
20:00 14.3 °C 8.3 °C 1020.5 hPa WNW 8.0 km/h 19.3 km/h 67 % 0.0 mm 35 W/m2
20:05 14.2 °C 7.9 °C 1020.5 hPa NNW 9.7 km/h 19.3 km/h 66 % 0.0 mm 33 W/m2
20:10 13.9 °C 7.9 °C 1020.5 hPa West 4.8 km/h 14.5 km/h 67 % 0.0 mm 32 W/m2
20:15 13.8 °C 8.2 °C 1020.5 hPa WNW 6.4 km/h 12.9 km/h 69 % 0.0 mm 28 W/m2
20:20 13.7 °C 7.9 °C 1020.5 hPa West 9.7 km/h 16.1 km/h 68 % 0.0 mm 25 W/m2
20:25 13.5 °C 7.7 °C 1020.5 hPa NNW 3.2 km/h 16.1 km/h 68 % 0.0 mm 21 W/m2
20:30 13.3 °C 7.8 °C 1020.5 hPa NW 6.4 km/h 14.5 km/h 69 % 0.0 mm 18 W/m2
20:35 13.3 °C 8.1 °C 1020.5 hPa WNW 1.6 km/h 14.5 km/h 71 % 0.0 mm 14 W/m2
20:40 13.2 °C 8.2 °C 1020.5 hPa NW 4.8 km/h 14.5 km/h 72 % 0.0 mm 11 W/m2
20:45 12.9 °C 8.4 °C 1020.5 hPa NW 4.8 km/h 14.5 km/h 74 % 0.0 mm 7 W/m2
20:50 12.7 °C 8.6 °C 1020.5 hPa WNW 4.8 km/h 12.9 km/h 76 % 0.0 mm 5 W/m2
20:55 12.4 °C 8.5 °C 1020.5 hPa West 11.3 km/h 14.5 km/h 77 % 0.0 mm 0 W/m2
21:00 12.3 °C 8.6 °C 1020.5 hPa NW 6.4 km/h 14.5 km/h 78 % 0.0 mm 0 W/m2
21:05 12.2 °C 8.7 °C 1020.5 hPa NW 4.8 km/h 12.9 km/h 79 % 0.0 mm 0 W/m2
21:10 12.2 °C 8.6 °C 1020.5 hPa NW 8.0 km/h 17.7 km/h 79 % 0.0 mm 0 W/m2
21:15 12.1 °C 8.6 °C 1020.5 hPa WNW 4.8 km/h 17.7 km/h 79 % 0.0 mm 0 W/m2
21:20 12.1 °C 8.5 °C 1020.5 hPa WNW 4.8 km/h 16.1 km/h 79 % 0.0 mm 0 W/m2
21:25 12.0 °C 8.5 °C 1020.5 hPa WNW 6.4 km/h 16.1 km/h 79 % 0.0 mm 0 W/m2
21:30 11.7 °C 8.4 °C 1020.5 hPa NW 4.8 km/h 11.3 km/h 80 % 0.0 mm 0 W/m2
21:40 11.3 °C 8.2 °C 1020.9 hPa NNW 4.8 km/h 12.9 km/h 81 % 0.0 mm 0 W/m2
21:45 11.2 °C 8.2 °C 1020.9 hPa NW 8.0 km/h 11.3 km/h 82 % 0.0 mm 0 W/m2
21:50 11.1 °C 8.2 °C 1020.9 hPa NW 4.8 km/h 11.3 km/h 82 % 0.0 mm 0 W/m2
21:55 10.9 °C 8.0 °C 1020.9 hPa Calm   9.7 km/h 82 % 0.0 mm 0 W/m2
22:00 10.6 °C 7.8 °C 1020.9 hPa Calm   8.0 km/h 83 % 0.0 mm 0 W/m2
22:05 10.3 °C 7.7 °C 1020.9 hPa Calm   8.0 km/h 84 % 0.0 mm 0 W/m2
22:10 10.3 °C 7.9 °C 1020.9 hPa Calm   4.8 km/h 85 % 0.0 mm 0 W/m2
22:15 10.3 °C 8.0 °C 1020.9 hPa Calm   8.0 km/h 86 % 0.0 mm 0 W/m2
22:20 10.2 °C 7.9 °C 1020.9 hPa Calm   8.0 km/h 86 % 0.0 mm 0 W/m2
22:25 10.1 °C 7.8 °C 1020.9 hPa Calm   4.8 km/h 86 % 0.0 mm 0 W/m2
22:30 9.9 °C 7.9 °C 1020.9 hPa Calm   3.2 km/h 87 % 0.0 mm 0 W/m2
22:35 9.8 °C 7.8 °C 1020.9 hPa North 1.6 km/h 4.8 km/h 87 % 0.0 mm 0 W/m2
22:40 9.8 °C 7.9 °C 1020.9 hPa North 1.6 km/h 4.8 km/h 88 % 0.0 mm 0 W/m2
22:45 9.7 °C 7.9 °C 1020.9 hPa Calm   4.8 km/h 89 % 0.0 mm 0 W/m2
22:50 9.8 °C 8.2 °C 1020.9 hPa NE 1.6 km/h 9.7 km/h 90 % 0.0 mm 0 W/m2
22:55 10.0 °C 8.4 °C 1020.9 hPa NE 1.6 km/h 9.7 km/h 90 % 0.0 mm 0 W/m2
23:00 10.1 °C 8.3 °C 1020.9 hPa NNE 1.6 km/h 8.0 km/h 89 % 0.0 mm 0 W/m2
23:05 10.0 °C 8.3 °C 1020.9 hPa Calm   6.4 km/h 89 % 0.0 mm 0 W/m2
23:10 9.9 °C 8.2 °C 1020.9 hPa NE 3.2 km/h 9.7 km/h 89 % 0.0 mm 0 W/m2
23:15 9.8 °C 8.1 °C 1020.9 hPa North 4.8 km/h 9.7 km/h 89 % 0.0 mm 0 W/m2
23:20 9.8 °C 8.2 °C 1020.9 hPa NE 4.8 km/h 9.7 km/h 90 % 0.0 mm 0 W/m2
23:25 9.7 °C 8.2 °C 1020.9 hPa NNE 6.4 km/h 9.7 km/h 90 % 0.0 mm 0 W/m2
23:30 9.8 °C 8.1 °C 1020.9 hPa NNE 4.8 km/h 9.7 km/h 89 % 0.0 mm 0 W/m2
23:35 9.7 °C 7.9 °C 1020.9 hPa NNE 1.6 km/h 9.7 km/h 89 % 0.0 mm 0 W/m2
23:40 9.8 °C 8.1 °C 1020.9 hPa NNE 4.8 km/h 9.7 km/h 89 % 0.0 mm 0 W/m2
23:45 9.8 °C 8.1 °C 1020.9 hPa NNE 1.6 km/h 11.3 km/h 89 % 0.0 mm 0 W/m2
23:55 9.6 °C 7.8 °C 1021.2 hPa NNE 8.0 km/h 9.7 km/h 89 % 0.0 mm 0 W/m2
Avec l'autorisation de Weather Underground - 1.5 mb